CheckWX is a tool to help pilots better visualize weather data.  It is not intended as a substitute for an official pre-flight weather briefing.

07:30:56 UTC

VTUK TAF
Khon Kaen Airport
Khon Kaen, Thailand
TAF VTUK 280500Z 2806/2906 09007KT 9000 FEW035

Jan-28@
06:00 UTC

Jan-28 @ 06:00 UTC

Jan-29@
06:00 UTC

Jan-29 @ 06:00 UTC

TAF VTUK 280500Z 2806/2906 09007KT 9000 FEW035
Wind
  • 090° at 7 KTS
Cloud Levels
  • Few at 3,500' AGL